Albion, California
Current Conditions -  °F | °C
As of 3:09 PM on Saturday 20 Dec 2014 (Local Time) from KUKI Reporting Station
Light Rain Light Rain  
Wind Chill: 54°   Ceiling: 2600
Heat Index: 54°   Visibility: 3mi
Dew Point: 52°   Wind: 6mph
Humidity: 93%   Direction: 170°S
Pressure: 30.15"   Gusts: NA
Location:  39.22°N, 123.77°W
Report Text: KUKI 202309Z AUTO 17005KT 3SM -RA BR FEW018 OVC026 12/11 A3015 RMK AO2 P0001 T01220111
Loading
Personal Weather Stations






























Interactive Weather Map New forecast layout! Learn more

10-Day Weather Forecast

Advertisements
Track Severe Weather on mobile